createdAt,value
2023-11-14T00:03:51.237Z,4.81
2023-11-14T00:09:03.152Z,4.65
2023-11-14T00:14:01.736Z,5.42
2023-11-14T00:19:13.127Z,5.82
2023-11-14T00:24:11.272Z,6.45
2023-11-14T00:29:23.255Z,7.17
2023-11-14T00:34:21.619Z,7.30
2023-11-14T00:39:33.328Z,7.18
2023-11-14T00:44:31.623Z,8.16
2023-11-14T00:49:43.458Z,7.81
2023-11-14T00:54:41.570Z,7.38
2023-11-14T00:59:53.428Z,7.43
2023-11-14T01:04:51.698Z,6.85
2023-11-14T01:10:03.370Z,7.27
2023-11-14T01:15:01.487Z,7.39
2023-11-14T01:20:13.659Z,7.54
2023-11-14T01:25:11.664Z,7.48
2023-11-14T01:30:27.197Z,7.85
2023-11-14T01:35:25.989Z,7.89
2023-11-14T01:40:42.592Z,7.65
2023-11-14T01:45:41.675Z,8.22
2023-11-14T01:50:53.721Z,7.28
2023-11-14T01:55:52.349Z,5.97
2023-11-14T02:01:04.442Z,6.76
2023-11-14T02:06:02.515Z,6.19
2023-11-14T02:11:14.163Z,6.29
2023-11-14T02:16:12.629Z,6.51
2023-11-14T02:21:24.606Z,7.29
2023-11-14T02:26:23.215Z,7.60
2023-11-14T02:31:35.616Z,9.35
2023-11-14T02:36:33.797Z,8.54
2023-11-14T02:41:44.068Z,8.68
2023-11-14T02:46:42.781Z,8.55
2023-11-14T02:51:54.573Z,8.95
2023-11-14T02:56:53.143Z,7.48
2023-11-14T03:02:05.199Z,8.15
2023-11-14T03:07:03.213Z,8.94
2023-11-14T03:12:15.342Z,8.91
2023-11-14T03:17:14.153Z,8.80
2023-11-14T03:22:26.297Z,9.53
2023-11-14T03:27:24.473Z,9.33
2023-11-14T03:32:36.475Z,8.95
2023-11-14T03:37:34.690Z,9.23
2023-11-14T03:42:46.491Z,9.96
2023-11-14T03:47:44.641Z,8.79
2023-11-14T03:52:56.925Z,9.78
2023-11-14T03:57:55.112Z,9.68
2023-11-14T04:03:07.896Z,9.77
2023-11-14T04:08:06.088Z,9.80
2023-11-14T04:13:17.391Z,10.09
2023-11-14T04:18:15.445Z,9.82
2023-11-14T04:23:27.997Z,11.08
2023-11-14T04:28:26.783Z,11.43
2023-11-14T04:33:38.374Z,10.56
2023-11-14T04:38:36.491Z,11.13
2023-11-14T04:43:48.279Z,11.43
2023-11-14T04:48:47.133Z,11.22
2023-11-14T04:53:59.365Z,12.09
2023-11-14T04:58:58.030Z,10.77
2023-11-14T05:04:09.748Z,11.92
2023-11-14T05:09:08.073Z,13.00
2023-11-14T05:14:20.456Z,13.32
2023-11-14T05:19:19.149Z,13.65
2023-11-14T05:24:31.837Z,13.77
2023-11-14T05:29:30.055Z,15.43
2023-11-14T05:34:42.526Z,16.04
2023-11-14T05:39:41.063Z,16.48
2023-11-14T05:44:53.496Z,17.64
2023-11-14T05:49:52.320Z,17.12
2023-11-14T05:55:04.911Z,17.11
2023-11-14T06:00:03.700Z,17.41
2023-11-14T06:05:16.928Z,17.45
2023-11-14T06:10:15.134Z,16.99
2023-11-14T06:15:30.981Z,16.40
2023-11-14T06:20:29.676Z,17.50
2023-11-14T06:25:42.573Z,16.81
2023-11-14T06:30:40.816Z,17.16
2023-11-14T06:35:53.374Z,17.37
2023-11-14T06:40:51.684Z,17.48
2023-11-14T06:46:03.953Z,17.10
2023-11-14T06:51:02.688Z,17.88
2023-11-14T06:56:15.800Z,17.08
2023-11-14T07:01:14.840Z,18.14
2023-11-14T07:06:26.531Z,16.92
2023-11-14T07:11:24.734Z,17.54
2023-11-14T07:16:37.932Z,17.80
2023-11-14T07:21:36.642Z,18.57
2023-11-14T07:26:49.710Z,17.49
2023-11-14T07:31:48.905Z,17.58
2023-11-14T07:42:06.577Z,18.01
2023-11-14T07:47:15.463Z,17.16
2023-11-14T07:52:17.485Z,15.99
2023-11-14T07:57:15.956Z,16.67
2023-11-14T08:02:27.375Z,17.15
2023-11-14T08:07:25.548Z,17.00
2023-11-14T08:12:38.315Z,15.84
2023-11-14T08:17:38.076Z,15.75
2023-11-14T08:22:50.508Z,16.69
2023-11-14T08:27:49.655Z,14.74
2023-11-14T08:33:02.539Z,14.67
2023-11-14T08:38:09.915Z,15.05
2023-11-14T08:43:13.056Z,14.05
2023-11-14T08:48:12.185Z,14.79
2023-11-14T08:53:26.186Z,14.17
2023-11-14T08:58:24.434Z,14.93
2023-11-14T09:03:36.331Z,15.34
2023-11-14T09:08:34.362Z,15.27
2023-11-14T09:13:47.512Z,15.88
2023-11-14T09:18:45.822Z,15.68
2023-11-14T09:23:57.477Z,24.60
2023-11-14T09:28:56.060Z,17.56
2023-11-14T09:34:08.690Z,20.78
2023-11-14T09:39:09.443Z,47.52
2023-11-14T09:44:18.341Z,136.20
2023-11-14T09:49:16.438Z,17.41
2023-11-14T09:54:28.204Z,20.00
2023-11-14T09:59:26.468Z,24.87
2023-11-14T10:04:38.521Z,16.47
2023-11-14T10:09:36.756Z,15.88
2023-11-14T10:14:48.535Z,14.95
2023-11-14T10:19:47.055Z,14.61
2023-11-14T10:24:59.419Z,16.35
2023-11-14T10:29:58.036Z,15.98
2023-11-14T10:35:09.269Z,17.61
2023-11-14T10:40:07.591Z,19.32
2023-11-14T10:45:19.466Z,17.76
2023-11-14T10:50:18.273Z,18.01
2023-11-14T10:55:30.320Z,17.04
2023-11-14T11:00:28.717Z,16.63
2023-11-14T11:05:40.407Z,16.43
2023-11-14T11:10:39.188Z,18.51
2023-11-14T11:15:51.798Z,19.19
2023-11-14T11:20:50.223Z,18.61
2023-11-14T11:26:02.855Z,18.35
2023-11-14T11:31:01.895Z,18.40
2023-11-14T11:36:13.286Z,17.87
2023-11-14T11:41:14.714Z,18.01
2023-11-14T11:46:22.249Z,18.68
2023-11-14T11:51:20.688Z,21.02
2023-11-14T11:56:32.446Z,20.56
2023-11-14T12:01:31.592Z,23.15
2023-11-14T12:06:44.355Z,19.55
2023-11-14T12:11:42.511Z,22.73
2023-11-14T12:16:54.265Z,22.53
2023-11-14T12:21:52.275Z,21.61
2023-11-14T12:27:04.197Z,20.64
2023-11-14T12:32:02.430Z,21.33
2023-11-14T12:37:14.421Z,20.18
2023-11-14T12:42:12.721Z,18.93
2023-11-14T12:47:25.774Z,20.19
2023-11-14T12:52:24.297Z,20.77
2023-11-14T12:57:36.311Z,18.68
2023-11-14T13:02:35.867Z,19.41
2023-11-14T13:07:45.605Z,19.13
2023-11-14T13:12:44.368Z,21.80
2023-11-14T13:17:56.469Z,20.42
2023-11-14T13:22:54.507Z,19.60
2023-11-14T13:28:06.782Z,18.00
2023-11-14T13:33:05.599Z,19.54
2023-11-14T13:38:18.051Z,20.15
2023-11-14T13:43:16.292Z,20.08
2023-11-14T13:48:28.353Z,20.34
2023-11-14T13:53:26.376Z,20.73
2023-11-14T13:58:38.308Z,21.23
2023-11-14T14:03:37.197Z,23.35
2023-11-14T14:08:49.199Z,23.40
2023-11-14T14:13:47.410Z,24.31
2023-11-14T14:18:59.289Z,23.26
2023-11-14T14:23:57.894Z,21.65
2023-11-14T14:29:09.508Z,23.75
2023-11-14T14:34:09.516Z,28.40
2023-11-14T14:39:19.237Z,28.73
2023-11-14T14:44:17.620Z,27.29
2023-11-14T14:49:29.394Z,27.02
2023-11-14T14:54:27.605Z,24.79
2023-11-14T14:59:39.181Z,23.17
2023-11-14T15:04:37.613Z,33.79
2023-11-14T15:09:49.326Z,30.99
2023-11-14T15:14:47.493Z,24.77
2023-11-14T15:19:59.349Z,22.71
2023-11-14T15:24:57.461Z,20.45
2023-11-14T15:30:09.233Z,20.93
2023-11-14T15:35:07.235Z,20.97
2023-11-14T15:40:19.518Z,19.26
2023-11-14T15:45:17.748Z,20.02
2023-11-14T15:50:29.434Z,21.60
2023-11-14T15:55:27.508Z,29.40
2023-11-14T16:00:39.181Z,30.28
2023-11-14T16:05:37.815Z,28.63
2023-11-14T16:10:51.040Z,25.72
2023-11-14T16:15:49.775Z,26.30
2023-11-14T16:21:03.756Z,25.86
2023-11-14T16:26:02.571Z,24.17
2023-11-14T16:31:15.556Z,23.85
2023-11-14T16:36:14.477Z,22.36
2023-11-14T16:41:28.109Z,22.34
2023-11-14T16:46:30.855Z,24.42
2023-11-14T16:51:33.087Z,22.23
2023-11-14T16:56:32.382Z,23.44
2023-11-14T17:01:44.391Z,22.46
2023-11-14T17:06:43.042Z,23.13
2023-11-14T17:11:55.210Z,22.99
2023-11-14T17:16:53.452Z,24.24
2023-11-14T17:22:05.378Z,23.26
2023-11-14T17:27:03.953Z,23.75
2023-11-14T17:32:15.238Z,24.33
2023-11-14T17:37:14.101Z,28.25
2023-11-14T17:42:28.273Z,27.81
2023-11-14T17:47:28.180Z,23.54
2023-11-14T17:52:41.201Z,26.89
2023-11-14T17:57:41.685Z,26.80
2023-11-14T18:02:45.243Z,29.73
2023-11-14T18:07:44.087Z,27.99
2023-11-14T18:12:57.038Z,30.49
2023-11-14T18:17:56.516Z,32.65
2023-11-14T18:23:09.137Z,42.56
2023-11-14T18:28:08.011Z,41.00
2023-11-14T18:33:20.838Z,35.85
2023-11-14T18:38:20.357Z,36.53
2023-11-14T18:43:33.590Z,35.09
2023-11-14T18:48:32.580Z,33.88
2023-11-14T18:53:45.167Z,41.67
2023-11-14T18:58:43.728Z,37.13
2023-11-14T19:03:56.244Z,68.29
2023-11-14T19:08:54.011Z,64.68
2023-11-14T19:14:06.297Z,37.53
2023-11-14T19:19:04.752Z,37.25
2023-11-14T19:24:16.191Z,47.74
2023-11-14T19:29:14.096Z,42.21
2023-11-14T19:34:26.534Z,41.38
2023-11-14T19:39:27.648Z,40.48
2023-11-14T19:44:29.697Z,140.36
2023-11-14T19:49:30.801Z,177.82
2023-11-14T19:54:39.700Z,114.77
2023-11-14T19:59:37.750Z,63.20
2023-11-14T20:04:49.437Z,73.17
2023-11-14T20:09:47.716Z,37.59
2023-11-14T20:14:59.120Z,32.42
2023-11-14T20:19:57.308Z,44.81
2023-11-14T20:25:09.304Z,40.45
2023-11-14T20:30:07.631Z,163.66
2023-11-14T20:35:19.725Z,243.07
2023-11-14T20:40:17.789Z,112.77
2023-11-14T20:45:29.095Z,117.97
2023-11-14T20:50:27.304Z,262.02
2023-11-14T20:55:39.744Z,83.61
2023-11-14T21:00:37.696Z,41.32
2023-11-14T21:05:49.090Z,159.08
2023-11-14T21:10:47.077Z,139.35
2023-11-14T21:15:59.386Z,104.04
2023-11-14T21:20:58.681Z,315.61
2023-11-14T21:26:10.297Z,116.38
2023-11-14T21:31:08.677Z,285.44
2023-11-14T21:36:20.609Z,205.77
2023-11-14T21:41:19.033Z,288.60
2023-11-14T21:46:30.413Z,291.39
2023-11-14T21:51:29.086Z,219.51
2023-11-14T21:56:41.509Z,142.83
2023-11-14T22:01:39.480Z,156.65
2023-11-14T22:06:51.597Z,118.08
2023-11-14T22:11:50.179Z,231.26
2023-11-14T22:17:02.291Z,89.28
2023-11-14T22:22:00.413Z,146.05
2023-11-14T22:27:12.851Z,142.88
2023-11-14T22:32:11.085Z,102.74
2023-11-14T22:37:23.231Z,43.84
2023-11-14T22:42:21.461Z,26.73
2023-11-14T22:47:33.673Z,32.31
2023-11-14T22:52:32.178Z,30.37
2023-11-14T22:57:44.794Z,23.71
2023-11-14T23:02:43.159Z,35.37
2023-11-14T23:07:55.085Z,26.26
2023-11-14T23:12:53.274Z,22.84
2023-11-14T23:18:05.212Z,23.62
2023-11-14T23:23:03.543Z,25.17
2023-11-14T23:28:15.197Z,24.14
2023-11-14T23:33:13.483Z,20.87
2023-11-14T23:38:25.770Z,22.62
2023-11-14T23:43:23.898Z,27.42
2023-11-14T23:48:35.256Z,27.62
2023-11-14T23:53:33.318Z,23.05
2023-11-14T23:58:45.355Z,23.66
